Etusivu
METAR-TAF:

METAR-TAF

Lentoasemat :

Shenzhen Bao'anin kansainvälinen lentoasema

Shenzhen, Kiina

Leveyspiiri: 22-33N, Pituuspiiri: 114-06E, korkeus merenpinnasta: 18 m

Tämänhetkinen sää

Tämä raportti tehtiin 43 minuuttia sitten, kello 06.00 UTC
Tuuli 10 kn etelästä/lounaasta
Lämpötila 32°C
Kosteus 75%
Ilmanpaine 1006 hPa
Näkyvyys 10 km tai enemmän
Hajanaisia pilviä 4000 ft:n korkeudessa

METAR: ZGSZ 220600Z 20005MPS 9999 SCT040 32/27 Q1006 NOSIG

Aika: 14:43 (06:43 UTC)

Sääennuste

Tämä raportti tehtiin 3 tuntia ja 41 minuuttia sitten, kello 03.02 UTC
Ennuste voimassa 22. päivästä klo 06 UTC - 23. päivään klo 06 UTC
Tuuli 8 kn etelästä
Näkyvyys: 8000 m
Hajanaisia pilviä 3000 ft:n korkeudessa

TAF: ZGSZ 220302Z 2206/2306 18004MPS 8000 SCT030 TX33/2206Z TN28/2222Z

Säähavainnot ja -ennusteet yli 4000 lentoasemalta (METAR- ja TAF-raportit).

Käytössä olevat sääasemat on merkitty karttaan keltaisilla ja punaisilla pisteillä.

Aseta hiiri pisteen päälle nähdäksesi sääaseman nimen.

Klikkaa sitten nähdäksesi säähavainnot ja -ennusteet.

Kartan vaihtaminen: klikkaa mustalla rastilla varustettuja vihreitä pisteitä, niin voit zoomata sisään; viivalla varustettua vihreää pistettä, niin voit zoomata ulos tai vihreitä nuolia, niin pääset viereisille kartoille.


METAR-TAF: